Albany, NY (12205)

12:31 AM EST en Enero 31, 2015 (GMT -0500)
South Colonie - Cook Park Area | Change Station
CLOSE
Current Station
Estación meteorológica personal
Location: Colonie, NY
Altura: 318 ft
Estaciones meteorológicas cercanas
Aviso en curso: Wind Chill Advisory Aviso activo: Public Information Statement

Alt 318 ft 42.71 °N, 73.84 °W | Updated 10 seconds ago

Partly Cloudy
Parcialmente nublado
6.1 ° F
Sensación térmica -8 ° F
N
9.8
Viento Variable Viento desde NO
Gusts 13.0 mph

Hoy
Alta -- | Baja -- ° F
--% Posibilidad de precipitaciones
Ayer
Alta -- | Baja -- ° F
Precip. -- pul
7:10 AM 5:06 PM
Gibosa creciente, 87% visible
Presión 30.09 pul
Visibilidad 10.0 Millas
Nubes Baja 3200 ft
Baja 5000 ft
Vientos helados -8 ° F
Punto de rocío -12 ° F
Humedad 41%
Precipitaciones 0.00 pul
Espesor de la nieve No disponible.
UV 0 de una escala de 12
Polen .10 de una escala de 12
Calidad del aire No disponible.
Flu Activity No disponible.
METAR KALB 310451Z 30011KT 10SM FEW032 FEW050 M13/M20 A3009

More Conditions Fewer Conditions

Presión 30.09 pul
Visibilidad 10.0 Millas
Nubes Baja 3200 ft
Baja 5000 ft
Vientos helados -8 ° F
Punto de rocío -12 ° F
Humedad 41%
Precipitaciones 0.00 pul
Espesor de la nieve No disponible.
UV 0 de una escala de 12
Polen .10 de una escala de 12
Calidad del aire No disponible.
Flu Activity No disponible.
METAR KALB 310451Z 30011KT 10SM FEW032 FEW050 M13/M20 A3009

More Conditions Fewer Conditions

10-Day Weather Forecast

Almanac

Astronomía

Jan. 31, 2015 Salida Puesta
Hora real
Crepúsculo civil
Crepúsculo náutico
Crepúsculo astronómico
Luna
Horas de luz
Horas de luz
Tomorrow will be .
, % of the Moon is Illuminated

Extremos de hoy

Máximos del estado Bajos del estado

Community

WunderPhotos

Upload Photos

1,792,005 ¡fotos cargadas!

WunderBlogs® & News

Nearby

Calidad del aire

  Calidad del aire Índice AQ Contaminante
Not available.

Grosos de nieve

Estación Profundido Altura

Actividad de terremotos

Ciudad Distance Mag. Tiempo y dato
Magnitud mínima muestra es 2,5.

Temperaturas de aguas costeras

Lugar Temperatura

Estaciones meteorológicas cercanas